Kingsbury, TX (78638)

2:49 PM CST on December 28, 2014 (GMT -0600)
Downtown | Change Station
CLOSE
Current Station
Personal Weather Station
Location: Staples, TX
Elevation: 530 ft
Nearby Weather Stations

Elev 530 ft 29.78 °N, 97.84 °W | Updated 14 seconds ago

Overcast
Overcast
45.3 °F
Feels Like 45 °F
N
2.8
Wind Variable Wind from NNW
Gusts 2.8 mph

Today
High -- | Low -- °F
--% Chance of Precip.
Yesterday
High -- | Low -- °F
Precip. -- in
7:25 AM 5:40 PM
Waxing Crescent, 51% visible
Pressure 30.21 in
Visibility 10.0 miles
Clouds Overcast 3400 ft
Windchill 45 °F
Dew Point 36 °F
Humidity 69%
Rainfall 0.15 in
Snow Depth Not available.
UV 1 out of 12
Pollen 9.40 out of 12
Air Quality Not available.
Flu Activity Not available.
METAR KBAZ 281951Z 34008KT 10SM OVC034 07/06 A3021 RMK AO2 SLP230 T00720056

More Conditions Fewer Conditions

Pressure 30.21 in
Visibility 10.0 miles
Clouds Overcast 3400 ft
Windchill 45 °F
Dew Point 36 °F
Humidity 69%
Rainfall 0.15 in
Snow Depth Not available.
UV 1 out of 12
Pollen 9.40 out of 12
Air Quality Not available.
Flu Activity Not available.
METAR KBAZ 281951Z 34008KT 10SM OVC034 07/06 A3021 RMK AO2 SLP230 T00720056

More Conditions Fewer Conditions

10-Day Weather Forecast

Almanac

Astronomy

Dec. 28, 2014 Rise Set
Actual Time
Civil Twilight
Nautical Twilight
Astronomical Twilight
Moon
Length of Visible Light
Length of Day
Tomorrow will be .
, % of the Moon is Illuminated

Today's Extremes

State Highs State Lows

Community

WunderPhotos

Upload Photos

1,781,414 photos uploaded!

WunderBlogs® & News

Nearby

Air Quality

  Air Quality AQ Index Pollutant
Not available.

Snow Depth

Station Depth Elevation

Earthquake Activity

City Distance Mag. Time & Date
Minimum magnitude displayed is 2.5.

Coastal Water Temperatures

Place Temperature

Nearby Weather Stations